sensor_id;sensor_type;location;lat;lon;timestamp;P1;durP1;ratioP1;P2;durP2;ratioP2
76786;SDS011;65739;51.482;5.702;2023-09-18T00:01:52;37.95;;;28.17;;
76786;SDS011;65739;51.482;5.702;2023-09-18T00:04:17;38.78;;;28.33;;
76786;SDS011;65739;51.482;5.702;2023-09-18T00:06:43;32.33;;;26.15;;
76786;SDS011;65739;51.482;5.702;2023-09-18T00:09:08;32.22;;;26.45;;
76786;SDS011;65739;51.482;5.702;2023-09-18T00:11:36;36.05;;;25.38;;
76786;SDS011;65739;51.482;5.702;2023-09-18T00:14:03;33.03;;;24.70;;
76786;SDS011;65739;51.482;5.702;2023-09-18T00:16:29;33.55;;;25.92;;
76786;SDS011;65739;51.482;5.702;2023-09-18T00:18:54;33.28;;;25.23;;
76786;SDS011;65739;51.482;5.702;2023-09-18T00:21:20;42.10;;;25.05;;
76786;SDS011;65739;51.482;5.702;2023-09-18T00:23:45;33.50;;;24.10;;
76786;SDS011;65739;51.482;5.702;2023-09-18T00:26:11;32.25;;;24.00;;
76786;SDS011;65739;51.482;5.702;2023-09-18T00:28:37;28.25;;;21.95;;
76786;SDS011;65739;51.482;5.702;2023-09-18T00:31:02;30.98;;;22.13;;
76786;SDS011;65739;51.482;5.702;2023-09-18T00:33:28;27.10;;;20.77;;
76786;SDS011;65739;51.482;5.702;2023-09-18T00:35:53;28.17;;;20.13;;
76786;SDS011;65739;51.482;5.702;2023-09-18T00:38:19;26.05;;;19.45;;
76786;SDS011;65739;51.482;5.702;2023-09-18T00:40:45;27.98;;;19.13;;
76786;SDS011;65739;51.482;5.702;2023-09-18T00:43:11;30.77;;;18.90;;
76786;SDS011;65739;51.482;5.702;2023-09-18T00:45:41;24.95;;;18.05;;
76786;SDS011;65739;51.482;5.702;2023-09-18T00:48:09;23.90;;;18.20;;
76786;SDS011;65739;51.482;5.702;2023-09-18T00:50:36;26.05;;;17.45;;
76786;SDS011;65739;51.482;5.702;2023-09-18T00:53:02;21.95;;;16.45;;
76786;SDS011;65739;51.482;5.702;2023-09-18T00:55:28;22.17;;;16.02;;
76786;SDS011;65739;51.482;5.702;2023-09-18T00:57:55;18.67;;;15.73;;
76786;SDS011;65739;51.482;5.702;2023-09-18T01:00:21;19.40;;;14.82;;
76786;SDS011;65739;51.482;5.702;2023-09-18T01:02:47;19.05;;;14.43;;
76786;SDS011;65739;51.482;5.702;2023-09-18T01:05:13;20.33;;;13.07;;
76786;SDS011;65739;51.482;5.702;2023-09-18T01:07:41;19.77;;;13.50;;
76786;SDS011;65739;51.482;5.702;2023-09-18T01:10:07;17.60;;;12.65;;
76786;SDS011;65739;51.482;5.702;2023-09-18T01:12:36;15.55;;;12.63;;
76786;SDS011;65739;51.482;5.702;2023-09-18T01:17:39;18.05;;;12.27;;
76786;SDS011;65739;51.482;5.702;2023-09-18T01:20:09;16.30;;;12.00;;
76786;SDS011;65739;51.482;5.702;2023-09-18T01:22:35;16.08;;;11.65;;
76786;SDS011;65739;51.482;5.702;2023-09-18T01:25:01;15.50;;;11.35;;
76786;SDS011;65739;51.482;5.702;2023-09-18T01:27:27;14.88;;;10.68;;
76786;SDS011;65739;51.482;5.702;2023-09-18T01:29:53;19.45;;;10.52;;
76786;SDS011;65739;51.482;5.702;2023-09-18T01:32:18;12.45;;;10.90;;
76786;SDS011;65739;51.482;5.702;2023-09-18T01:34:46;18.13;;;10.82;;
76786;SDS011;65739;51.482;5.702;2023-09-18T01:37:13;13.95;;;9.32;;
76786;SDS011;65739;51.482;5.702;2023-09-18T01:39:40;12.27;;;9.32;;
76786;SDS011;65739;51.482;5.702;2023-09-18T01:42:07;12.65;;;8.65;;
76786;SDS011;65739;51.482;5.702;2023-09-18T01:44:36;16.63;;;8.95;;
76786;SDS011;65739;51.482;5.702;2023-09-18T01:47:09;13.25;;;8.73;;
76786;SDS011;65739;51.482;5.702;2023-09-18T01:49:38;14.70;;;9.23;;
76786;SDS011;65739;51.482;5.702;2023-09-18T01:52:05;18.17;;;8.50;;
76786;SDS011;65739;51.482;5.702;2023-09-18T01:54:32;11.23;;;7.60;;
76786;SDS011;65739;51.482;5.702;2023-09-18T01:56:58;13.25;;;7.53;;
76786;SDS011;65739;51.482;5.702;2023-09-18T01:59:25;9.02;;;7.10;;
76786;SDS011;65739;51.482;5.702;2023-09-18T02:01:51;13.10;;;7.55;;
76786;SDS011;65739;51.482;5.702;2023-09-18T02:04:18;12.43;;;6.90;;
76786;SDS011;65739;51.482;5.702;2023-09-18T02:06:44;14.05;;;7.20;;
76786;SDS011;65739;51.482;5.702;2023-09-18T02:09:11;11.40;;;7.75;;
76786;SDS011;65739;51.482;5.702;2023-09-18T02:11:37;11.63;;;7.32;;
76786;SDS011;65739;51.482;5.702;2023-09-18T02:14:05;9.70;;;6.45;;
76786;SDS011;65739;51.482;5.702;2023-09-18T02:16:38;12.27;;;6.93;;
76786;SDS011;65739;51.482;5.702;2023-09-18T02:19:12;12.30;;;7.30;;
76786;SDS011;65739;51.482;5.702;2023-09-18T02:21:38;8.98;;;7.05;;
76786;SDS011;65739;51.482;5.702;2023-09-18T02:24:04;10.35;;;6.95;;
76786;SDS011;65739;51.482;5.702;2023-09-18T02:26:30;11.40;;;6.50;;
76786;SDS011;65739;51.482;5.702;2023-09-18T02:28:58;18.00;;;8.05;;
76786;SDS011;65739;51.482;5.702;2023-09-18T02:31:24;11.18;;;6.63;;
76786;SDS011;65739;51.482;5.702;2023-09-18T02:33:50;11.57;;;6.72;;
76786;SDS011;65739;51.482;5.702;2023-09-18T02:36:15;14.32;;;6.72;;
76786;SDS011;65739;51.482;5.702;2023-09-18T02:38:41;11.45;;;6.40;;
76786;SDS011;65739;51.482;5.702;2023-09-18T02:41:08;11.13;;;6.78;;
76786;SDS011;65739;51.482;5.702;2023-09-18T02:43:34;15.25;;;7.22;;
76786;SDS011;65739;51.482;5.702;2023-09-18T02:45:59;12.43;;;6.45;;
76786;SDS011;65739;51.482;5.702;2023-09-18T02:48:25;13.63;;;6.65;;
76786;SDS011;65739;51.482;5.702;2023-09-18T02:50:50;15.60;;;7.00;;
76786;SDS011;65739;51.482;5.702;2023-09-18T02:53:17;15.05;;;6.78;;
76786;SDS011;65739;51.482;5.702;2023-09-18T02:55:44;10.05;;;6.05;;
76786;SDS011;65739;51.482;5.702;2023-09-18T02:58:10;12.70;;;7.07;;
76786;SDS011;65739;51.482;5.702;2023-09-18T03:00:40;11.15;;;7.30;;
76786;SDS011;65739;51.482;5.702;2023-09-18T03:03:09;17.15;;;7.97;;
76786;SDS011;65739;51.482;5.702;2023-09-18T03:05:35;11.35;;;6.85;;
76786;SDS011;65739;51.482;5.702;2023-09-18T03:08:01;11.48;;;7.13;;
76786;SDS011;65739;51.482;5.702;2023-09-18T03:10:27;13.80;;;6.47;;
76786;SDS011;65739;51.482;5.702;2023-09-18T03:12:52;12.55;;;6.50;;
76786;SDS011;65739;51.482;5.702;2023-09-18T03:15:18;17.20;;;6.78;;
76786;SDS011;65739;51.482;5.702;2023-09-18T03:17:44;12.05;;;6.47;;
76786;SDS011;65739;51.482;5.702;2023-09-18T03:20:09;13.80;;;7.10;;
76786;SDS011;65739;51.482;5.702;2023-09-18T03:22:35;11.15;;;6.60;;
76786;SDS011;65739;51.482;5.702;2023-09-18T03:25:01;11.52;;;6.63;;
76786;SDS011;65739;51.482;5.702;2023-09-18T03:27:27;12.02;;;6.65;;
76786;SDS011;65739;51.482;5.702;2023-09-18T03:29:57;14.30;;;6.88;;
76786;SDS011;65739;51.482;5.702;2023-09-18T03:32:23;16.95;;;6.53;;
76786;SDS011;65739;51.482;5.702;2023-09-18T03:34:52;15.07;;;6.50;;
76786;SDS011;65739;51.482;5.702;2023-09-18T03:37:18;11.67;;;5.83;;
76786;SDS011;65739;51.482;5.702;2023-09-18T03:39:44;15.40;;;6.07;;
76786;SDS011;65739;51.482;5.702;2023-09-18T03:42:09;18.77;;;5.93;;
76786;SDS011;65739;51.482;5.702;2023-09-18T03:44:35;16.75;;;5.60;;
76786;SDS011;65739;51.482;5.702;2023-09-18T03:47:01;13.60;;;5.50;;
76786;SDS011;65739;51.482;5.702;2023-09-18T03:49:28;9.65;;;4.93;;
76786;SDS011;65739;51.482;5.702;2023-09-18T03:51:54;9.82;;;5.40;;
76786;SDS011;65739;51.482;5.702;2023-09-18T03:54:19;9.63;;;5.35;;
76786;SDS011;65739;51.482;5.702;2023-09-18T03:56:45;10.43;;;4.75;;
76786;SDS011;65739;51.482;5.702;2023-09-18T03:59:11;13.35;;;4.80;;
76786;SDS011;65739;51.482;5.702;2023-09-18T04:01:37;11.88;;;5.05;;
76786;SDS011;65739;51.482;5.702;2023-09-18T04:04:03;12.32;;;4.57;;
76786;SDS011;65739;51.482;5.702;2023-09-18T04:06:35;9.95;;;4.55;;
76786;SDS011;65739;51.482;5.702;2023-09-18T04:09:02;13.95;;;5.15;;
76786;SDS011;65739;51.482;5.702;2023-09-18T04:11:28;10.32;;;4.50;;
76786;SDS011;65739;51.482;5.702;2023-09-18T04:13:57;12.00;;;4.90;;
76786;SDS011;65739;51.482;5.702;2023-09-18T04:16:24;8.77;;;5.07;;
76786;SDS011;65739;51.482;5.702;2023-09-18T04:18:49;8.63;;;4.57;;
76786;SDS011;65739;51.482;5.702;2023-09-18T04:21:15;9.98;;;4.72;;
76786;SDS011;65739;51.482;5.702;2023-09-18T04:23:41;13.15;;;5.00;;
76786;SDS011;65739;51.482;5.702;2023-09-18T04:26:06;8.23;;;4.55;;
76786;SDS011;65739;51.482;5.702;2023-09-18T04:28:32;9.05;;;4.38;;
76786;SDS011;65739;51.482;5.702;2023-09-18T04:30:57;10.50;;;4.90;;
76786;SDS011;65739;51.482;5.702;2023-09-18T04:33:23;11.57;;;4.82;;
76786;SDS011;65739;51.482;5.702;2023-09-18T04:35:50;8.88;;;4.68;;
76786;SDS011;65739;51.482;5.702;2023-09-18T04:38:16;7.85;;;5.00;;
76786;SDS011;65739;51.482;5.702;2023-09-18T04:40:44;9.15;;;4.60;;
76786;SDS011;65739;51.482;5.702;2023-09-18T04:43:10;12.27;;;4.85;;
76786;SDS011;65739;51.482;5.702;2023-09-18T04:45:36;10.57;;;5.10;;
76786;SDS011;65739;51.482;5.702;2023-09-18T04:48:02;7.85;;;4.32;;
76786;SDS011;65739;51.482;5.702;2023-09-18T04:50:28;8.65;;;4.40;;
76786;SDS011;65739;51.482;5.702;2023-09-18T04:52:54;11.43;;;4.05;;
76786;SDS011;65739;51.482;5.702;2023-09-18T04:55:21;8.82;;;4.10;;
76786;SDS011;65739;51.482;5.702;2023-09-18T04:57:46;8.52;;;3.70;;
76786;SDS011;65739;51.482;5.702;2023-09-18T05:00:12;9.52;;;3.35;;
76786;SDS011;65739;51.482;5.702;2023-09-18T05:02:39;9.30;;;3.10;;
76786;SDS011;65739;51.482;5.702;2023-09-18T05:05:05;6.45;;;3.05;;
76786;SDS011;65739;51.482;5.702;2023-09-18T05:07:33;7.70;;;2.95;;
76786;SDS011;65739;51.482;5.702;2023-09-18T05:09:59;6.30;;;2.90;;
76786;SDS011;65739;51.482;5.702;2023-09-18T05:12:25;5.60;;;2.83;;
76786;SDS011;65739;51.482;5.702;2023-09-18T05:14:50;11.40;;;2.85;;
76786;SDS011;65739;51.482;5.702;2023-09-18T05:17:16;7.97;;;2.50;;
76786;SDS011;65739;51.482;5.702;2023-09-18T05:19:43;5.93;;;2.47;;
76786;SDS011;65739;51.482;5.702;2023-09-18T05:22:09;5.28;;;2.47;;
76786;SDS011;65739;51.482;5.702;2023-09-18T05:24:37;3.63;;;2.63;;
76786;SDS011;65739;51.482;5.702;2023-09-18T05:27:03;7.45;;;2.67;;
76786;SDS011;65739;51.482;5.702;2023-09-18T05:29:31;5.25;;;2.53;;
76786;SDS011;65739;51.482;5.702;2023-09-18T05:31:56;8.45;;;2.60;;
76786;SDS011;65739;51.482;5.702;2023-09-18T05:34:22;4.00;;;2.38;;
76786;SDS011;65739;51.482;5.702;2023-09-18T05:36:47;5.63;;;2.65;;
76786;SDS011;65739;51.482;5.702;2023-09-18T05:39:13;7.85;;;2.50;;
76786;SDS011;65739;51.482;5.702;2023-09-18T05:41:39;5.47;;;2.70;;
76786;SDS011;65739;51.482;5.702;2023-09-18T05:44:05;5.82;;;2.50;;
76786;SDS011;65739;51.482;5.702;2023-09-18T05:46:33;6.25;;;2.30;;
76786;SDS011;65739;51.482;5.702;2023-09-18T05:49:00;5.80;;;2.28;;
76786;SDS011;65739;51.482;5.702;2023-09-18T05:51:25;5.43;;;2.67;;
76786;SDS011;65739;51.482;5.702;2023-09-18T05:53:52;3.33;;;2.22;;
76786;SDS011;65739;51.482;5.702;2023-09-18T05:56:17;4.93;;;2.15;;
76786;SDS011;65739;51.482;5.702;2023-09-18T05:58:43;3.08;;;2.42;;
76786;SDS011;65739;51.482;5.702;2023-09-18T06:01:09;6.18;;;2.33;;
76786;SDS011;65739;51.482;5.702;2023-09-18T06:03:34;4.80;;;2.03;;
76786;SDS011;65739;51.482;5.702;2023-09-18T06:06:09;7.85;;;2.03;;
76786;SDS011;65739;51.482;5.702;2023-09-18T06:08:35;3.00;;;1.85;;
76786;SDS011;65739;51.482;5.702;2023-09-18T06:11:00;5.38;;;2.15;;
76786;SDS011;65739;51.482;5.702;2023-09-18T06:13:26;2.95;;;1.85;;
76786;SDS011;65739;51.482;5.702;2023-09-18T06:15:53;5.65;;;1.83;;
76786;SDS011;65739;51.482;5.702;2023-09-18T06:18:20;4.00;;;1.65;;
76786;SDS011;65739;51.482;5.702;2023-09-18T06:20:47;5.00;;;1.55;;
76786;SDS011;65739;51.482;5.702;2023-09-18T06:23:13;4.30;;;1.38;;
76786;SDS011;65739;51.482;5.702;2023-09-18T06:25:39;3.80;;;1.45;;
76786;SDS011;65739;51.482;5.702;2023-09-18T06:28:05;1.20;;;1.10;;
76786;SDS011;65739;51.482;5.702;2023-09-18T06:30:30;2.63;;;1.48;;
76786;SDS011;65739;51.482;5.702;2023-09-18T06:32:57;4.60;;;1.80;;
76786;SDS011;65739;51.482;5.702;2023-09-18T06:35:23;1.88;;;1.55;;
76786;SDS011;65739;51.482;5.702;2023-09-18T06:37:49;6.25;;;1.60;;
76786;SDS011;65739;51.482;5.702;2023-09-18T06:40:14;3.65;;;1.30;;
76786;SDS011;65739;51.482;5.702;2023-09-18T06:42:40;4.85;;;1.70;;
76786;SDS011;65739;51.482;5.702;2023-09-18T06:45:06;2.30;;;1.40;;
76786;SDS011;65739;51.482;5.702;2023-09-18T06:47:32;1.20;;;1.10;;
76786;SDS011;65739;51.482;5.702;2023-09-18T06:49:58;2.03;;;1.50;;
76786;SDS011;65739;51.482;5.702;2023-09-18T06:52:25;4.55;;;1.55;;
76786;SDS011;65739;51.482;5.702;2023-09-18T06:54:51;7.80;;;1.23;;
76786;SDS011;65739;51.482;5.702;2023-09-18T06:57:17;2.45;;;1.38;;
76786;SDS011;65739;51.482;5.702;2023-09-18T06:59:43;4.68;;;1.60;;
76786;SDS011;65739;51.482;5.702;2023-09-18T07:02:09;3.80;;;1.27;;
76786;SDS011;65739;51.482;5.702;2023-09-18T07:04:35;5.13;;;1.77;;
76786;SDS011;65739;51.482;5.702;2023-09-18T07:07:01;3.17;;;1.40;;
76786;SDS011;65739;51.482;5.702;2023-09-18T07:09:26;4.68;;;1.30;;
76786;SDS011;65739;51.482;5.702;2023-09-18T07:11:52;6.47;;;1.73;;
76786;SDS011;65739;51.482;5.702;2023-09-18T07:14:17;2.25;;;1.38;;
76786;SDS011;65739;51.482;5.702;2023-09-18T07:16:43;6.25;;;1.75;;
76786;SDS011;65739;51.482;5.702;2023-09-18T07:19:09;3.33;;;1.48;;
76786;SDS011;65739;51.482;5.702;2023-09-18T07:21:37;3.05;;;1.60;;
76786;SDS011;65739;51.482;5.702;2023-09-18T07:24:03;4.18;;;1.40;;
76786;SDS011;65739;51.482;5.702;2023-09-18T07:26:29;3.55;;;1.20;;
76786;SDS011;65739;51.482;5.702;2023-09-18T07:28:54;2.30;;;1.45;;
76786;SDS011;65739;51.482;5.702;2023-09-18T07:31:20;2.63;;;1.52;;
76786;SDS011;65739;51.482;5.702;2023-09-18T07:33:45;3.17;;;1.40;;
76786;SDS011;65739;51.482;5.702;2023-09-18T07:36:11;1.88;;;1.38;;
76786;SDS011;65739;51.482;5.702;2023-09-18T07:38:37;3.05;;;1.30;;
76786;SDS011;65739;51.482;5.702;2023-09-18T07:41:02;6.30;;;1.63;;
76786;SDS011;65739;51.482;5.702;2023-09-18T07:43:28;2.78;;;1.40;;
76786;SDS011;65739;51.482;5.702;2023-09-18T07:45:54;4.10;;;1.60;;
76786;SDS011;65739;51.482;5.702;2023-09-18T07:48:19;2.47;;;1.30;;
76786;SDS011;65739;51.482;5.702;2023-09-18T07:50:46;3.65;;;1.45;;
76786;SDS011;65739;51.482;5.702;2023-09-18T07:53:14;1.85;;;1.20;;
76786;SDS011;65739;51.482;5.702;2023-09-18T07:55:40;2.75;;;1.60;;
76786;SDS011;65739;51.482;5.702;2023-09-18T07:58:06;3.00;;;1.30;;
76786;SDS011;65739;51.482;5.702;2023-09-18T08:00:31;5.22;;;1.30;;
76786;SDS011;65739;51.482;5.702;2023-09-18T08:02:58;4.60;;;1.52;;
76786;SDS011;65739;51.482;5.702;2023-09-18T08:05:26;2.47;;;1.20;;
76786;SDS011;65739;51.482;5.702;2023-09-18T08:07:56;4.78;;;1.38;;
76786;SDS011;65739;51.482;5.702;2023-09-18T08:10:23;1.63;;;1.38;;
76786;SDS011;65739;51.482;5.702;2023-09-18T08:12:50;3.10;;;1.40;;
76786;SDS011;65739;51.482;5.702;2023-09-18T08:15:19;1.80;;;1.20;;
76786;SDS011;65739;51.482;5.702;2023-09-18T08:17:45;3.90;;;1.45;;
76786;SDS011;65739;51.482;5.702;2023-09-18T08:20:13;4.80;;;1.60;;
76786;SDS011;65739;51.482;5.702;2023-09-18T08:22:40;5.00;;;1.30;;
76786;SDS011;65739;51.482;5.702;2023-09-18T08:25:06;5.80;;;1.25;;
76786;SDS011;65739;51.482;5.702;2023-09-18T08:27:35;4.93;;;1.55;;
76786;SDS011;65739;51.482;5.702;2023-09-18T08:30:07;5.25;;;1.75;;
76786;SDS011;65739;51.482;5.702;2023-09-18T08:32:34;3.70;;;1.30;;
76786;SDS011;65739;51.482;5.702;2023-09-18T08:35:00;4.93;;;1.20;;
76786;SDS011;65739;51.482;5.702;2023-09-18T08:37:29;4.20;;;1.23;;
76786;SDS011;65739;51.482;5.702;2023-09-18T08:39:54;3.78;;;1.30;;
76786;SDS011;65739;51.482;5.702;2023-09-18T08:42:20;6.28;;;1.33;;
76786;SDS011;65739;51.482;5.702;2023-09-18T08:44:47;5.38;;;1.77;;
76786;SDS011;65739;51.482;5.702;2023-09-18T08:47:16;3.30;;;1.47;;
76786;SDS011;65739;51.482;5.702;2023-09-18T08:49:43;3.97;;;1.40;;
76786;SDS011;65739;51.482;5.702;2023-09-18T08:52:09;2.00;;;1.40;;
76786;SDS011;65739;51.482;5.702;2023-09-18T08:54:36;4.55;;;1.67;;
76786;SDS011;65739;51.482;5.702;2023-09-18T08:57:02;2.85;;;1.30;;
76786;SDS011;65739;51.482;5.702;2023-09-18T08:59:29;2.05;;;1.42;;
76786;SDS011;65739;51.482;5.702;2023-09-18T09:01:56;4.00;;;1.58;;
76786;SDS011;65739;51.482;5.702;2023-09-18T09:04:21;3.78;;;1.38;;
76786;SDS011;65739;51.482;5.702;2023-09-18T09:06:48;6.32;;;1.80;;
76786;SDS011;65739;51.482;5.702;2023-09-18T09:09:13;2.97;;;1.40;;
76786;SDS011;65739;51.482;5.702;2023-09-18T09:11:39;5.03;;;1.45;;
76786;SDS011;65739;51.482;5.702;2023-09-18T09:14:13;2.63;;;1.30;;
76786;SDS011;65739;51.482;5.702;2023-09-18T09:16:52;3.72;;;1.50;;
76786;SDS011;65739;51.482;5.702;2023-09-18T09:19:30;5.03;;;1.30;;
76786;SDS011;65739;51.482;5.702;2023-09-18T09:21:57;4.28;;;1.70;;
76786;SDS011;65739;51.482;5.702;2023-09-18T09:24:42;3.90;;;1.60;;
76786;SDS011;65739;51.482;5.702;2023-09-18T09:27:09;5.10;;;1.52;;
76786;SDS011;65739;51.482;5.702;2023-09-18T09:29:35;9.88;;;1.67;;
76786;SDS011;65739;51.482;5.702;2023-09-18T09:32:17;3.45;;;1.60;;
76786;SDS011;65739;51.482;5.702;2023-09-18T09:34:45;3.78;;;1.60;;
76786;SDS011;65739;51.482;5.702;2023-09-18T09:37:11;5.60;;;1.65;;
76786;SDS011;65739;51.482;5.702;2023-09-18T09:39:47;6.78;;;1.80;;
76786;SDS011;65739;51.482;5.702;2023-09-18T09:42:15;3.05;;;1.80;;
76786;SDS011;65739;51.482;5.702;2023-09-18T09:44:44;5.15;;;1.50;;
76786;SDS011;65739;51.482;5.702;2023-09-18T09:47:09;5.53;;;1.92;;
76786;SDS011;65739;51.482;5.702;2023-09-18T09:49:44;2.65;;;1.48;;
76786;SDS011;65739;51.482;5.702;2023-09-18T09:52:17;5.20;;;1.83;;
76786;SDS011;65739;51.482;5.702;2023-09-18T09:54:46;2.42;;;1.60;;
76786;SDS011;65739;51.482;5.702;2023-09-18T09:57:11;7.45;;;1.70;;
76786;SDS011;65739;51.482;5.702;2023-09-18T09:59:37;4.70;;;1.73;;
76786;SDS011;65739;51.482;5.702;2023-09-18T10:02:02;2.85;;;1.58;;
76786;SDS011;65739;51.482;5.702;2023-09-18T10:04:29;3.97;;;1.50;;
76786;SDS011;65739;51.482;5.702;2023-09-18T10:07:04;2.22;;;1.70;;
76786;SDS011;65739;51.482;5.702;2023-09-18T10:09:32;4.10;;;1.67;;
76786;SDS011;65739;51.482;5.702;2023-09-18T10:12:00;3.30;;;1.50;;
76786;SDS011;65739;51.482;5.702;2023-09-18T10:14:35;7.07;;;1.75;;
76786;SDS011;65739;51.482;5.702;2023-09-18T10:17:23;2.30;;;1.42;;
76786;SDS011;65739;51.482;5.702;2023-09-18T10:19:57;2.95;;;1.70;;
76786;SDS011;65739;51.482;5.702;2023-09-18T10:22:52;3.72;;;1.67;;
76786;SDS011;65739;51.482;5.702;2023-09-18T10:25:21;2.65;;;1.45;;
76786;SDS011;65739;51.482;5.702;2023-09-18T10:27:49;3.13;;;1.20;;
76786;SDS011;65739;51.482;5.702;2023-09-18T10:30:19;5.97;;;1.73;;
76786;SDS011;65739;51.482;5.702;2023-09-18T10:32:48;4.30;;;1.40;;
76786;SDS011;65739;51.482;5.702;2023-09-18T10:35:14;4.85;;;1.45;;
76786;SDS011;65739;51.482;5.702;2023-09-18T10:37:43;3.80;;;1.40;;
76786;SDS011;65739;51.482;5.702;2023-09-18T10:42:38;3.38;;;1.50;;
76786;SDS011;65739;51.482;5.702;2023-09-18T10:45:07;3.55;;;1.80;;
76786;SDS011;65739;51.482;5.702;2023-09-18T10:47:40;6.32;;;1.80;;
76786;SDS011;65739;51.482;5.702;2023-09-18T10:50:10;4.55;;;1.55;;
76786;SDS011;65739;51.482;5.702;2023-09-18T10:52:36;3.08;;;1.67;;
76786;SDS011;65739;51.482;5.702;2023-09-18T10:55:10;3.55;;;1.63;;
76786;SDS011;65739;51.482;5.702;2023-09-18T10:57:37;3.78;;;1.50;;
76786;SDS011;65739;51.482;5.702;2023-09-18T11:00:04;4.13;;;2.00;;
76786;SDS011;65739;51.482;5.702;2023-09-18T11:02:38;5.07;;;1.65;;
76786;SDS011;65739;51.482;5.702;2023-09-18T11:05:07;4.20;;;1.80;;
76786;SDS011;65739;51.482;5.702;2023-09-18T11:07:32;7.40;;;1.70;;
76786;SDS011;65739;51.482;5.702;2023-09-18T11:09:58;7.35;;;1.90;;
76786;SDS011;65739;51.482;5.702;2023-09-18T11:12:41;4.18;;;1.63;;
76786;SDS011;65739;51.482;5.702;2023-09-18T11:15:09;8.45;;;1.88;;
76786;SDS011;65739;51.482;5.702;2023-09-18T11:17:58;4.78;;;1.80;;
76786;SDS011;65739;51.482;5.702;2023-09-18T11:20:26;4.40;;;1.73;;
76786;SDS011;65739;51.482;5.702;2023-09-18T11:22:57;4.13;;;2.30;;
76786;SDS011;65739;51.482;5.702;2023-09-18T11:25:31;5.90;;;1.73;;
76786;SDS011;65739;51.482;5.702;2023-09-18T11:28:07;5.13;;;2.23;;
76786;SDS011;65739;51.482;5.702;2023-09-18T11:30:37;6.50;;;1.90;;
76786;SDS011;65739;51.482;5.702;2023-09-18T11:33:12;4.70;;;1.70;;
76786;SDS011;65739;51.482;5.702;2023-09-18T11:35:38;4.60;;;1.83;;
76786;SDS011;65739;51.482;5.702;2023-09-18T11:38:16;6.78;;;1.92;;
76786;SDS011;65739;51.482;5.702;2023-09-18T11:40:42;2.78;;;1.70;;
76786;SDS011;65739;51.482;5.702;2023-09-18T11:45:55;3.80;;;1.75;;
76786;SDS011;65739;51.482;5.702;2023-09-18T11:48:25;4.88;;;1.85;;
76786;SDS011;65739;51.482;5.702;2023-09-18T11:53:22;5.80;;;1.90;;
76786;SDS011;65739;51.482;5.702;2023-09-18T11:55:49;7.20;;;1.90;;
76786;SDS011;65739;51.482;5.702;2023-09-18T11:58:14;3.50;;;2.17;;
76786;SDS011;65739;51.482;5.702;2023-09-18T12:00:40;4.70;;;1.92;;
76786;SDS011;65739;51.482;5.702;2023-09-18T12:03:22;2.85;;;1.67;;
76786;SDS011;65739;51.482;5.702;2023-09-18T12:05:55;4.77;;;2.30;;
76786;SDS011;65739;51.482;5.702;2023-09-18T12:08:26;4.55;;;1.73;;
76786;SDS011;65739;51.482;5.702;2023-09-18T12:10:54;5.25;;;1.73;;
76786;SDS011;65739;51.482;5.702;2023-09-18T12:13:20;4.63;;;2.10;;
76786;SDS011;65739;51.482;5.702;2023-09-18T12:15:47;2.75;;;1.70;;
76786;SDS011;65739;51.482;5.702;2023-09-18T12:18:14;3.47;;;1.83;;
76786;SDS011;65739;51.482;5.702;2023-09-18T12:20:47;5.13;;;1.70;;
76786;SDS011;65739;51.482;5.702;2023-09-18T12:23:14;6.82;;;2.00;;
76786;SDS011;65739;51.482;5.702;2023-09-18T12:25:40;3.97;;;1.90;;
76786;SDS011;65739;51.482;5.702;2023-09-18T12:28:06;4.68;;;1.92;;
76786;SDS011;65739;51.482;5.702;2023-09-18T12:30:33;7.13;;;1.98;;
76786;SDS011;65739;51.482;5.702;2023-09-18T12:32:59;3.33;;;1.75;;
76786;SDS011;65739;51.482;5.702;2023-09-18T12:35:26;4.80;;;2.00;;
76786;SDS011;65739;51.482;5.702;2023-09-18T12:37:54;7.10;;;1.80;;
76786;SDS011;65739;51.482;5.702;2023-09-18T12:40:25;3.03;;;2.05;;
76786;SDS011;65739;51.482;5.702;2023-09-18T12:42:58;4.05;;;1.67;;
76786;SDS011;65739;51.482;5.702;2023-09-18T12:45:27;5.03;;;1.88;;
76786;SDS011;65739;51.482;5.702;2023-09-18T12:47:55;2.78;;;1.45;;
76786;SDS011;65739;51.482;5.702;2023-09-18T12:50:21;5.78;;;1.80;;
76786;SDS011;65739;51.482;5.702;2023-09-18T12:52:47;3.45;;;1.40;;
76786;SDS011;65739;51.482;5.702;2023-09-18T12:55:22;2.47;;;1.60;;
76786;SDS011;65739;51.482;5.702;2023-09-18T12:57:49;4.45;;;1.70;;
76786;SDS011;65739;51.482;5.702;2023-09-18T13:00:17;4.63;;;1.60;;
76786;SDS011;65739;51.482;5.702;2023-09-18T13:05:11;2.58;;;1.60;;
76786;SDS011;65739;51.482;5.702;2023-09-18T13:07:45;6.30;;;1.30;;
76786;SDS011;65739;51.482;5.702;2023-09-18T13:10:12;3.35;;;1.50;;
76786;SDS011;65739;51.482;5.702;2023-09-18T13:12:46;4.30;;;1.60;;
76786;SDS011;65739;51.482;5.702;2023-09-18T13:15:23;1.73;;;1.40;;
76786;SDS011;65739;51.482;5.702;2023-09-18T13:17:52;7.10;;;1.40;;
76786;SDS011;65739;51.482;5.702;2023-09-18T13:20:22;6.47;;;1.67;;
76786;SDS011;65739;51.482;5.702;2023-09-18T13:22:51;3.78;;;1.40;;
76786;SDS011;65739;51.482;5.702;2023-09-18T13:25:26;3.30;;;1.63;;
76786;SDS011;65739;51.482;5.702;2023-09-18T13:28:01;3.67;;;1.40;;
76786;SDS011;65739;51.482;5.702;2023-09-18T13:30:28;5.15;;;1.63;;
76786;SDS011;65739;51.482;5.702;2023-09-18T13:33:06;4.47;;;2.25;;
76786;SDS011;65739;51.482;5.702;2023-09-18T13:35:42;1.75;;;1.17;;
76786;SDS011;65739;51.482;5.702;2023-09-18T13:40:35;2.25;;;1.10;;
76786;SDS011;65739;51.482;5.702;2023-09-18T13:43:02;5.63;;;1.80;;
76786;SDS011;65739;51.482;5.702;2023-09-18T13:45:29;2.58;;;1.60;;
76786;SDS011;65739;51.482;5.702;2023-09-18T13:47:55;4.10;;;1.60;;
76786;SDS011;65739;51.482;5.702;2023-09-18T13:50:20;2.17;;;1.48;;
76786;SDS011;65739;51.482;5.702;2023-09-18T13:52:46;4.18;;;1.67;;
76786;SDS011;65739;51.482;5.702;2023-09-18T13:55:12;5.28;;;1.17;;
76786;SDS011;65739;51.482;5.702;2023-09-18T13:57:37;6.18;;;1.52;;
76786;SDS011;65739;51.482;5.702;2023-09-18T14:00:05;1.83;;;1.30;;
76786;SDS011;65739;51.482;5.702;2023-09-18T14:02:32;3.90;;;1.55;;
76786;SDS011;65739;51.482;5.702;2023-09-18T14:04:58;4.22;;;1.35;;
76786;SDS011;65739;51.482;5.702;2023-09-18T14:07:23;4.57;;;1.52;;
76786;SDS011;65739;51.482;5.702;2023-09-18T14:09:49;2.17;;;1.30;;
76786;SDS011;65739;51.482;5.702;2023-09-18T14:12:15;3.72;;;1.48;;
76786;SDS011;65739;51.482;5.702;2023-09-18T14:14:41;2.65;;;1.25;;
76786;SDS011;65739;51.482;5.702;2023-09-18T14:17:07;3.17;;;1.30;;
76786;SDS011;65739;51.482;5.702;2023-09-18T14:19:34;6.15;;;1.55;;
76786;SDS011;65739;51.482;5.702;2023-09-18T14:21:59;3.97;;;1.52;;
76786;SDS011;65739;51.482;5.702;2023-09-18T14:24:29;3.47;;;1.50;;
76786;SDS011;65739;51.482;5.702;2023-09-18T14:26:55;6.05;;;1.63;;
76786;SDS011;65739;51.482;5.702;2023-09-18T14:29:20;2.22;;;1.33;;
76786;SDS011;65739;51.482;5.702;2023-09-18T14:31:46;3.60;;;1.30;;
76786;SDS011;65739;51.482;5.702;2023-09-18T14:34:12;2.08;;;1.52;;
76786;SDS011;65739;51.482;5.702;2023-09-18T14:36:38;2.70;;;1.50;;
76786;SDS011;65739;51.482;5.702;2023-09-18T14:39:04;5.03;;;1.15;;
76786;SDS011;65739;51.482;5.702;2023-09-18T14:41:34;3.60;;;1.50;;
76786;SDS011;65739;51.482;5.702;2023-09-18T14:44:01;1.55;;;1.30;;
76786;SDS011;65739;51.482;5.702;2023-09-18T14:46:28;2.20;;;1.33;;
76786;SDS011;65739;51.482;5.702;2023-09-18T14:48:54;4.55;;;1.50;;
76786;SDS011;65739;51.482;5.702;2023-09-18T14:51:19;2.75;;;1.25;;
76786;SDS011;65739;51.482;5.702;2023-09-18T14:53:45;2.05;;;1.20;;
76786;SDS011;65739;51.482;5.702;2023-09-18T14:56:11;1.85;;;1.05;;
76786;SDS011;65739;51.482;5.702;2023-09-18T14:58:36;5.93;;;1.20;;
76786;SDS011;65739;51.482;5.702;2023-09-18T15:01:02;2.83;;;1.20;;